Photometre #347[NE_1.6] Troodos_CAO AOT

File : 20220824_347.hum

24/08/2022,04:00:02,TEMP=15.0,BA=5.64,STAT.A=0.5,ExtBa=13.95
24/08/2022,04:03:11,TEMP=15.3,BA=5.60,STAT.A=0.5,ExtBa=13.87
24/08/2022,04:06:50,TEMP=15.4,BA=5.60,STAT.A=0.5,ExtBa=13.83
24/08/2022,04:11:10,TEMP=15.4,BA=5.64,STAT.A=0.5,ExtBa=13.81
24/08/2022,04:16:23,TEMP=15.5,BA=5.64,STAT.A=0.5,ExtBa=13.82
24/08/2022,04:22:46,TEMP=15.6,BA=5.64,STAT.A=0.5,ExtBa=13.85
24/08/2022,04:30:47,TEMP=15.7,BA=5.64,STAT.B=0.5,ExtBa=13.88
24/08/2022,04:39:26,TEMP=16.2,BA=5.64,STAT.A=0.5,ExtBa=12.79
24/08/2022,04:41:19,TEMP=16.4,BA=5.48,STAT.A=0.5,ExtBa=12.80
24/08/2022,04:43:37,TEMP=16.4,BA=5.48,STAT.A=0.5,ExtBa=12.82
24/08/2022,04:49:01,TEMP=16.2,BA=5.48,STAT.A=0.5,ExtBa=13.01
24/08/2022,04:55:10,TEMP=16.2,BA=5.52,STAT.C=0.5,ExtBa=13.20
24/08/2022,05:08:42,TEMP=16.9,BA=5.44,STAT.A=0.5,ExtBa=12.71
24/08/2022,05:10:35,TEMP=17.1,BA=5.44,STAT.A=0.5,ExtBa=12.77
24/08/2022,05:20:19,TEMP=16.7,BA=5.64,STAT.A=0.5,ExtBa=13.17
24/08/2022,05:32:07,TEMP=16.9,BA=5.64,STAT.A=0.5,ExtBa=13.40
24/08/2022,05:46:41,TEMP=17.4,BA=5.64,STAT.B=0.5,ExtBa=13.51
24/08/2022,06:16:32,TEMP=18.3,BA=5.64,STAT.B=0.5,ExtBa=13.55
24/08/2022,06:25:09,TEMP=19.0,BA=5.48,STAT.D=0.5,ExtBa=12.85
24/08/2022,06:36:36,TEMP=18.9,BA=5.64,STAT.D=0.5,ExtBa=13.34
24/08/2022,06:51:38,TEMP=19.5,BA=5.64,STAT.F,ExtBa=13.54
24/08/2022,07:06:37,TEMP=20.6,BA=5.44,STAT.D=0.5,ExtBa=12.89
24/08/2022,07:21:37,TEMP=21.3,BA=5.64,STAT.D=0.5,ExtBa=13.39
24/08/2022,07:36:37,TEMP=21.9,BA=5.64,STAT.D=0.5,ExtBa=13.54
24/08/2022,07:51:39,TEMP=22.4,BA=5.64,STAT.F,ExtBa=13.65
24/08/2022,08:06:37,TEMP=22.8,BA=5.48,STAT.D=0.5,ExtBa=13.51
24/08/2022,08:21:37,TEMP=22.8,BA=5.64,STAT.D=0.5,ExtBa=13.74
24/08/2022,08:36:37,TEMP=24.1,BA=5.64,STAT.D=0.5,ExtBa=13.82
24/08/2022,08:51:39,TEMP=25.2,BA=5.64,STAT.F,ExtBa=13.82
24/08/2022,09:06:37,TEMP=26.6,BA=5.64,STAT.D=0.5,ExtBa=13.55
24/08/2022,09:21:37,TEMP=26.7,BA=5.64,STAT.D=0.5,ExtBa=13.79
24/08/2022,09:36:37,TEMP=27.3,BA=5.64,STAT.D=0.5,ExtBa=13.83
24/08/2022,09:51:39,TEMP=28.0,BA=5.64,STAT.F,ExtBa=13.81
24/08/2022,10:06:37,TEMP=25.9,BA=5.64,STAT.D=0.5,ExtBa=13.54
24/08/2022,10:21:37,TEMP=24.4,BA=5.64,STAT.D=0.5,ExtBa=13.78
24/08/2022,10:36:37,TEMP=22.5,BA=5.64,STAT.D=0.5,ExtBa=13.81
24/08/2022,10:51:39,TEMP=21.2,BA=5.64,STAT.F,ExtBa=13.79
24/08/2022,11:06:37,TEMP=19.8,BA=5.64,STAT.D=0.5,ExtBa=13.82
24/08/2022,11:21:37,TEMP=18.9,BA=5.64,STAT.D=0.5,ExtBa=13.82
24/08/2022,11:36:37,TEMP=18.8,BA=5.64,STAT.D=0.5,ExtBa=13.82
24/08/2022,11:51:39,TEMP=20.1,BA=5.64,STAT.F,ExtBa=13.80
24/08/2022,12:06:37,TEMP=20.6,BA=5.64,STAT.D=0.5,ExtBa=13.83
24/08/2022,12:21:37,TEMP=20.3,BA=5.64,STAT.D=0.5,ExtBa=13.83
24/08/2022,12:36:36,TEMP=19.7,BA=5.64,STAT.D=0.5,ExtBa=13.82
24/08/2022,12:51:38,TEMP=19.9,BA=5.64,STAT.F,ExtBa=13.79
24/08/2022,13:06:36,TEMP=19.2,BA=5.64,STAT.D=0.5,ExtBa=13.81
24/08/2022,13:21:36,TEMP=19.8,BA=5.64,STAT.D=0.5,ExtBa=13.82
24/08/2022,13:26:43,TEMP=19.7,BA=5.64,STAT.B=0.5,ExtBa=13.79
24/08/2022,13:56:34,TEMP=18.6,BA=5.64,STAT.B=0.5,ExtBa=13.83
24/08/2022,14:11:07,TEMP=20.4,BA=5.64,STAT.A=0.5,ExtBa=13.17
24/08/2022,14:22:55,TEMP=20.2,BA=5.64,STAT.A=0.5,ExtBa=13.51
24/08/2022,14:32:42,TEMP=19.7,BA=5.64,STAT.A=0.5,ExtBa=13.69
24/08/2022,14:40:58,TEMP=19.5,BA=5.64,STAT.A=0.5,ExtBa=13.75
24/08/2022,14:48:04,TEMP=19.9,BA=5.64,STAT.C=0.5,ExtBa=13.77
24/08/2022,15:01:32,TEMP=21.2,BA=5.44,STAT.A=0.5,ExtBa=12.83
24/08/2022,15:06:12,TEMP=21.1,BA=5.44,STAT.A=0.5,ExtBa=13.07
24/08/2022,15:08:03,TEMP=21.4,BA=5.44,STAT.A=0.5,ExtBa=13.04
24/08/2022,15:09:54,TEMP=21.5,BA=5.44,STAT.A=0.5,ExtBa=13.03
24/08/2022,15:12:27,TEMP=21.3,BA=5.44,STAT.B=0.5,ExtBa=13.06
24/08/2022,15:21:00,TEMP=20.7,BA=5.44,STAT.A=0.5,ExtBa=12.79
24/08/2022,15:26:51,TEMP=20.4,BA=5.44,STAT.A=0.5,ExtBa=13.08
24/08/2022,15:32:04,TEMP=20.3,BA=5.64,STAT.A=0.5,ExtBa=13.19
24/08/2022,15:36:24,TEMP=20.1,BA=5.64,STAT.A=0.5,ExtBa=13.25
24/08/2022,15:40:02,TEMP=19.9,BA=5.64,STAT.A=0.5,ExtBa=13.27
24/08/2022,15:43:11,TEMP=19.6,BA=5.52,STAT.A=0.5,ExtBa=13.27